LFPG

Charles de Gaulle International Airport

Code ICAO LFPG
Code IATA CDG
Nom Charles de Gaulle International Airport
Emplacement Paris, Ile-de-France, FR
Élévation 392 pieds / 119.5 mètres
Latitude 49.01279831
Longitude 2.54999995
METAR LFPG 020000Z 28005KT CAVOK 17/12 Q1014 NOSIG
Informations extras Afficher cartes et CFS
Afficher NOTAMS
Piste Longueur Largeur Surface Élévation
08L 13829 ft 148 ft ASP 338 ft
08R 8858 ft 197 ft CON 336 ft
09L 8858 ft 197 ft ASP 378 ft
09R 13780 ft 148 ft ASP 370 ft
26R 13829 ft 148 ft ASP 318 ft
26L 8858 ft 197 ft CON 316 ft
27R 8858 ft 197 ft ASP 392 ft
27L 13780 ft 148 ft ASP 387 ft